Eutaw, North Carolina
Current Conditions -  °F | °C
As of 1:49 PM on Sunday 23 Nov 2014 (Local Time) from KPOB Reporting Station
Haze Haze  
Wind Chill: 52°   Ceiling: 1200
Heat Index: 52°   Visibility: 5mi
Dew Point: 50°   Wind: 6mph
Humidity: 94%   Direction: 80°E
Pressure: 30.03"   Gusts: NA
Location:  35.0916°N, 79.0106°W
Report Text: KPOB 231849Z AUTO 08005KT 5SM BR SCT007 OVC012 11/10 A3003 RMK AO2 RAE1847 CIG 006 RWY05
Loading
Personal Weather Stations






























Interactive Weather Map New forecast layout! Learn more

10-Day Weather Forecast

Advertisements
Track Severe Weather on mobile